createdAt,value
2019-04-02T00:00:10.670Z,12.81
2019-04-02T00:01:10.622Z,12.82
2019-04-02T00:02:11.821Z,12.81
2019-04-02T00:03:10.686Z,12.8
2019-04-02T00:04:10.609Z,12.79
2019-04-02T00:05:10.583Z,12.76
2019-04-02T00:06:10.667Z,12.81
2019-04-02T00:07:10.619Z,12.79
2019-04-02T00:08:10.615Z,12.8
2019-04-02T00:09:10.617Z,12.76
2019-04-02T00:10:10.589Z,12.74
2019-04-02T00:11:10.612Z,12.76
2019-04-02T00:12:10.593Z,12.76
2019-04-02T00:13:10.623Z,12.76
2019-04-02T00:14:10.630Z,12.76
2019-04-02T00:15:10.582Z,12.72
2019-04-02T00:16:12.900Z,12.74
2019-04-02T00:17:10.945Z,12.73
2019-04-02T00:18:10.687Z,12.75
2019-04-02T00:19:10.608Z,12.73
2019-04-02T00:20:10.595Z,12.68
2019-04-02T00:21:10.597Z,12.63
2019-04-02T00:22:10.640Z,12.67
2019-04-02T00:23:10.686Z,12.64
2019-04-02T00:24:10.675Z,12.61
2019-04-02T00:25:10.622Z,12.56
2019-04-02T00:26:10.632Z,12.57
2019-04-02T00:27:10.617Z,12.58
2019-04-02T00:28:10.589Z,12.58
2019-04-02T00:29:10.902Z,12.59
2019-04-02T00:30:10.677Z,12.59
2019-04-02T00:31:14.032Z,12.59
2019-04-02T00:32:12.132Z,12.6
2019-04-02T00:33:10.688Z,12.57
2019-04-02T00:34:10.821Z,12.57
2019-04-02T00:35:10.670Z,12.57
2019-04-02T00:36:10.587Z,12.55
2019-04-02T00:37:10.569Z,12.53
2019-04-02T00:38:10.564Z,12.53
2019-04-02T00:39:10.622Z,12.51
2019-04-02T00:40:10.603Z,12.51
2019-04-02T00:41:10.545Z,12.5
2019-04-02T00:42:11.619Z,12.49
2019-04-02T00:43:10.595Z,12.46
2019-04-02T00:44:10.598Z,12.43
2019-04-02T00:45:10.570Z,12.41
2019-04-02T00:46:10.534Z,12.41
2019-04-02T00:47:10.540Z,12.39
2019-04-02T00:48:10.555Z,12.35
2019-04-02T00:49:10.576Z,12.38
2019-04-02T00:50:13.203Z,12.33
2019-04-02T00:51:10.577Z,12.31
2019-04-02T00:52:10.531Z,12.31
2019-04-02T00:53:10.651Z,12.32
2019-04-02T00:54:10.552Z,12.33
2019-04-02T00:55:10.589Z,12.27
2019-04-02T00:56:10.656Z,12.28
2019-04-02T00:57:10.517Z,12.26
2019-04-02T00:58:10.526Z,12.24
2019-04-02T00:59:10.555Z,12.25
2019-04-02T01:00:10.583Z,12.22
2019-04-02T01:01:10.556Z,12.22
2019-04-02T01:02:10.537Z,12.2
2019-04-02T01:03:13.093Z,12.21
2019-04-02T01:04:10.979Z,12.21
2019-04-02T01:05:10.559Z,12.21
2019-04-02T01:06:10.600Z,12.25
2019-04-02T01:07:10.618Z,12.26
2019-04-02T01:08:10.509Z,12.28
2019-04-02T01:09:11.626Z,12.28
2019-04-02T01:10:10.555Z,12.28
2019-04-02T01:11:10.559Z,12.28
2019-04-02T01:12:10.624Z,12.26
2019-04-02T01:13:10.543Z,12.23
2019-04-02T01:14:10.590Z,12.24
2019-04-02T01:15:10.530Z,12.2
2019-04-02T01:16:10.816Z,12.17
2019-04-02T01:17:12.061Z,12.14
2019-04-02T01:18:10.958Z,12.17
2019-04-02T01:19:10.582Z,12.19
2019-04-02T01:20:10.654Z,12.17
2019-04-02T01:21:10.528Z,12.17
2019-04-02T01:22:10.550Z,12.11
2019-04-02T01:23:10.515Z,12.13
2019-04-02T01:24:10.492Z,12.09
2019-04-02T01:25:10.512Z,12.08
2019-04-02T01:26:10.501Z,12.02
2019-04-02T01:27:10.528Z,12
2019-04-02T01:28:10.545Z,12.02
2019-04-02T01:29:11.966Z,12.03
2019-04-02T01:30:10.578Z,12.02
2019-04-02T01:31:10.503Z,12.02
2019-04-02T01:32:10.544Z,12.01
2019-04-02T01:33:11.853Z,12.01
2019-04-02T01:34:10.630Z,12.02
2019-04-02T01:35:10.524Z,12.02
2019-04-02T01:36:10.508Z,12.01
2019-04-02T01:37:10.550Z,12.01
2019-04-02T01:38:10.708Z,11.99
2019-04-02T01:39:10.477Z,11.97
2019-04-02T01:40:10.486Z,11.97
2019-04-02T01:41:10.542Z,11.94
2019-04-02T01:42:10.456Z,11.96
2019-04-02T01:43:10.603Z,11.89
2019-04-02T01:44:10.493Z,11.9
2019-04-02T01:45:10.502Z,11.89
2019-04-02T01:46:10.533Z,11.88
2019-04-02T01:47:10.463Z,11.86
2019-04-02T01:48:10.457Z,11.86
2019-04-02T01:49:11.653Z,11.8
2019-04-02T01:50:10.467Z,11.76
2019-04-02T01:51:10.582Z,11.74
2019-04-02T01:52:10.525Z,11.74
2019-04-02T01:53:10.477Z,11.72
2019-04-02T01:54:10.545Z,11.73
2019-04-02T01:55:11.803Z,11.7
2019-04-02T01:56:10.479Z,11.68
2019-04-02T01:57:10.453Z,11.7
2019-04-02T01:58:10.498Z,11.71
2019-04-02T01:59:10.552Z,11.72
2019-04-02T02:00:10.592Z,11.74
2019-04-02T02:01:10.491Z,11.65
2019-04-02T02:02:10.491Z,11.71
2019-04-02T02:03:10.524Z,11.72
2019-04-02T02:04:10.504Z,11.71
2019-04-02T02:05:10.467Z,11.73
2019-04-02T02:06:12.629Z,11.73
2019-04-02T02:07:11.184Z,11.76
2019-04-02T02:08:10.467Z,11.76
2019-04-02T02:09:10.499Z,11.72
2019-04-02T02:10:10.488Z,11.73
2019-04-02T02:11:10.447Z,11.72
2019-04-02T02:12:10.538Z,11.71
2019-04-02T02:13:10.428Z,11.7
2019-04-02T02:14:10.434Z,11.71
2019-04-02T02:15:10.457Z,11.71
2019-04-02T02:16:10.464Z,11.7
2019-04-02T02:17:10.484Z,11.71
2019-04-02T02:18:10.455Z,11.69
2019-04-02T02:19:10.412Z,11.62
2019-04-02T02:20:10.505Z,11.65
2019-04-02T02:21:10.628Z,11.64
2019-04-02T02:22:10.725Z,11.54
2019-04-02T02:23:12.060Z,11.55
2019-04-02T02:24:10.458Z,11.56
2019-04-02T02:25:10.452Z,11.53
2019-04-02T02:26:10.469Z,11.53
2019-04-02T02:27:10.477Z,11.53
2019-04-02T02:28:10.479Z,11.52
2019-04-02T02:29:10.477Z,11.53
2019-04-02T02:30:10.492Z,11.51
2019-04-02T02:31:10.559Z,11.54
2019-04-02T02:32:10.493Z,11.54
2019-04-02T02:33:10.607Z,11.55
2019-04-02T02:34:10.602Z,11.54
2019-04-02T02:35:10.584Z,11.55
2019-04-02T02:36:11.075Z,11.57
2019-04-02T02:37:11.668Z,11.58
2019-04-02T02:38:12.129Z,11.54
2019-04-02T02:39:12.461Z,11.53
2019-04-02T02:40:11.736Z,11.55
2019-04-02T02:41:12.561Z,11.54
2019-04-02T02:42:13.632Z,11.54
2019-04-02T02:43:13.644Z,11.57
2019-04-02T02:44:13.946Z,11.53
2019-04-02T02:45:10.424Z,11.54
2019-04-02T02:46:10.392Z,11.51
2019-04-02T02:47:10.478Z,11.53
2019-04-02T02:48:10.445Z,11.52
2019-04-02T02:49:10.498Z,11.51
2019-04-02T02:50:10.467Z,11.37
2019-04-02T02:51:10.451Z,11.38
2019-04-02T02:52:10.750Z,11.39
2019-04-02T02:53:10.483Z,11.38
2019-04-02T02:54:10.448Z,11.38
2019-04-02T02:55:10.435Z,11.36
2019-04-02T02:56:10.505Z,11.35
2019-04-02T02:57:10.631Z,11.34
2019-04-02T02:58:10.438Z,11.38
2019-04-02T02:59:10.406Z,11.37
2019-04-02T03:00:10.782Z,11.36
2019-04-02T03:01:10.486Z,11.38
2019-04-02T03:02:10.503Z,11.34
2019-04-02T03:03:10.561Z,11.34
2019-04-02T03:04:11.725Z,11.36
2019-04-02T03:05:10.857Z,11.36
2019-04-02T03:06:10.432Z,11.38
2019-04-02T03:07:10.489Z,11.34
2019-04-02T03:08:10.394Z,11.35
2019-04-02T03:09:10.415Z,11.35
2019-04-02T03:10:12.905Z,11.35
2019-04-02T03:11:10.366Z,11.33
2019-04-02T03:12:11.469Z,11.34
2019-04-02T03:13:10.458Z,11.32
2019-04-02T03:14:10.570Z,11.33
2019-04-02T03:15:10.609Z,11.29
2019-04-02T03:16:12.312Z,11.26
2019-04-02T03:17:13.281Z,11.23
2019-04-02T03:18:13.706Z,11.2
2019-04-02T03:19:14.926Z,11.18
2019-04-02T03:20:10.514Z,11.14
2019-04-02T03:21:10.433Z,11.15
2019-04-02T03:22:10.561Z,11.13
2019-04-02T03:23:10.422Z,11.15
2019-04-02T03:24:10.408Z,11.17
2019-04-02T03:25:10.477Z,11.14
2019-04-02T03:26:10.376Z,11.13
2019-04-02T03:27:10.922Z,11.12
2019-04-02T03:28:10.404Z,11.08
2019-04-02T03:29:10.447Z,11.07
2019-04-02T03:30:10.496Z,11.07
2019-04-02T03:31:10.406Z,11.06
2019-04-02T03:32:12.265Z,11.05
2019-04-02T03:33:10.477Z,11.08
2019-04-02T03:34:12.576Z,11.06
2019-04-02T03:35:10.513Z,11.06
2019-04-02T03:36:10.374Z,11.01
2019-04-02T03:37:10.379Z,11.02
2019-04-02T03:38:10.385Z,11.02
2019-04-02T03:39:10.387Z,11.05
2019-04-02T03:40:10.445Z,11.01
2019-04-02T03:41:11.230Z,11.02
2019-04-02T03:42:11.756Z,11.03
2019-04-02T03:43:12.743Z,11.02
2019-04-02T03:44:14.190Z,11.01
2019-04-02T03:45:10.912Z,11.02
2019-04-02T03:46:13.899Z,11.01
2019-04-02T03:47:10.401Z,11.01
2019-04-02T03:48:10.492Z,11.01
2019-04-02T03:49:15.634Z,11
2019-04-02T03:50:10.437Z,10.97
2019-04-02T03:51:10.407Z,10.97
2019-04-02T03:52:10.442Z,10.96
2019-04-02T03:53:10.371Z,10.94
2019-04-02T03:54:10.412Z,10.96
2019-04-02T03:55:10.434Z,10.94
2019-04-02T03:56:10.465Z,10.94
2019-04-02T03:57:10.414Z,10.92
2019-04-02T03:58:10.360Z,10.91
2019-04-02T03:59:10.348Z,10.9
2019-04-02T04:00:10.515Z,10.9
2019-04-02T04:01:10.297Z,10.88
2019-04-02T04:02:10.288Z,10.87
2019-04-02T04:03:10.449Z,10.88
2019-04-02T04:04:10.356Z,10.86
2019-04-02T04:05:10.504Z,10.86
2019-04-02T04:06:11.378Z,10.84
2019-04-02T04:07:10.329Z,10.86
2019-04-02T04:08:11.425Z,10.84
2019-04-02T04:09:10.927Z,10.83
2019-04-02T04:10:11.562Z,10.83
2019-04-02T04:11:12.725Z,10.83
2019-04-02T04:12:13.253Z,10.82
2019-04-02T04:13:13.874Z,10.84
2019-04-02T04:14:10.347Z,10.85
2019-04-02T04:15:10.389Z,10.81
2019-04-02T04:16:12.271Z,10.82
2019-04-02T04:17:10.345Z,10.76
2019-04-02T04:18:10.375Z,10.77
2019-04-02T04:19:10.514Z,10.77
2019-04-02T04:20:10.316Z,10.78
2019-04-02T04:21:10.405Z,10.79
2019-04-02T04:22:11.227Z,10.77
2019-04-02T04:23:10.388Z,10.74
2019-04-02T04:24:10.358Z,10.74
2019-04-02T04:25:10.345Z,10.72
2019-04-02T04:26:10.331Z,10.73
2019-04-02T04:27:10.443Z,10.73
2019-04-02T04:28:10.690Z,10.72
2019-04-02T04:29:10.686Z,10.72
2019-04-02T04:30:10.330Z,10.68
2019-04-02T04:31:10.326Z,10.65
2019-04-02T04:32:10.717Z,10.64
2019-04-02T04:33:10.454Z,10.64
2019-04-02T04:34:13.301Z,10.63
2019-04-02T04:35:11.229Z,10.65
2019-04-02T04:36:12.061Z,10.62
2019-04-02T04:37:12.076Z,10.64
2019-04-02T04:38:12.786Z,10.63
2019-04-02T04:39:21.567Z,10.65
2019-04-02T04:40:10.471Z,10.66
2019-04-02T04:41:10.243Z,10.65
2019-04-02T04:42:10.252Z,10.6
2019-04-02T04:43:10.440Z,10.6
2019-04-02T04:44:10.323Z,10.59
2019-04-02T04:45:10.319Z,10.58
2019-04-02T04:46:10.330Z,10.55
2019-04-02T04:47:10.295Z,10.54
2019-04-02T04:48:10.267Z,10.55
2019-04-02T04:49:10.376Z,10.57
2019-04-02T04:50:10.401Z,10.54
2019-04-02T04:51:10.289Z,10.52
2019-04-02T04:52:10.268Z,10.46
2019-04-02T04:53:10.297Z,10.47
2019-04-02T04:54:10.725Z,10.44
2019-04-02T04:55:10.777Z,10.41
2019-04-02T04:56:10.269Z,10.45
2019-04-02T04:57:10.422Z,10.41
2019-04-02T04:58:10.534Z,10.45
2019-04-02T04:59:10.363Z,10.45
2019-04-02T05:00:10.265Z,10.41
2019-04-02T05:01:10.262Z,10.36
2019-04-02T05:02:10.421Z,10.34
2019-04-02T05:03:10.264Z,10.33
2019-04-02T05:04:10.304Z,10.32
2019-04-02T05:05:10.274Z,10.34
2019-04-02T05:06:10.332Z,10.31
2019-04-02T05:07:10.287Z,10.34
2019-04-02T05:08:10.286Z,10.33
2019-04-02T05:09:13.389Z,10.34
2019-04-02T05:10:10.253Z,10.33
2019-04-02T05:11:10.327Z,10.33
2019-04-02T05:12:10.223Z,10.33
2019-04-02T05:13:10.211Z,10.32
2019-04-02T05:14:17.495Z,10.36
2019-04-02T05:15:10.260Z,10.33
2019-04-02T05:16:10.703Z,10.3
2019-04-02T05:17:10.248Z,10.29
2019-04-02T05:18:10.204Z,10.3
2019-04-02T05:19:10.669Z,10.28
2019-04-02T05:20:10.262Z,10.28
2019-04-02T05:21:10.271Z,10.22
2019-04-02T05:22:12.624Z,10.24
2019-04-02T05:23:12.279Z,10.21
2019-04-02T05:24:13.420Z,10.23
2019-04-02T05:25:12.488Z,10.26
2019-04-02T05:26:11.164Z,10.28
2019-04-02T05:27:11.238Z,10.3
2019-04-02T05:28:10.239Z,10.31
2019-04-02T05:29:10.256Z,10.31
2019-04-02T05:30:10.176Z,10.34
2019-04-02T05:31:10.184Z,10.33
2019-04-02T05:32:10.179Z,10.35
2019-04-02T05:33:10.211Z,10.39
2019-04-02T05:34:10.242Z,10.37
2019-04-02T05:35:10.213Z,10.4
2019-04-02T05:36:10.156Z,10.4
2019-04-02T05:37:10.595Z,10.39
2019-04-02T05:38:10.497Z,10.38
2019-04-02T05:39:10.231Z,10.35
2019-04-02T05:40:10.205Z,10.34
2019-04-02T05:41:10.237Z,10.35
2019-04-02T05:42:12.984Z,10.38
2019-04-02T05:43:10.993Z,10.35
2019-04-02T05:44:10.349Z,10.38
2019-04-02T05:45:10.440Z,10.34
2019-04-02T05:46:10.876Z,10.35
2019-04-02T05:47:10.229Z,10.36
2019-04-02T05:48:10.183Z,10.31
2019-04-02T05:49:10.230Z,10.32
2019-04-02T05:50:10.190Z,10.31
2019-04-02T05:51:10.356Z,10.35
2019-04-02T05:52:10.139Z,10.36
2019-04-02T05:53:10.238Z,10.36
2019-04-02T05:54:11.355Z,10.38
2019-04-02T05:55:10.207Z,10.4
2019-04-02T05:56:10.264Z,10.4
2019-04-02T05:57:10.407Z,10.4
2019-04-02T05:58:10.213Z,10.4
2019-04-02T05:59:10.773Z,10.4
2019-04-02T06:00:10.197Z,10.42
2019-04-02T06:01:10.367Z,10.42
2019-04-02T06:02:10.204Z,10.44
2019-04-02T06:03:12.029Z,10.43
2019-04-02T06:04:11.946Z,10.45
2019-04-02T06:05:10.346Z,10.43
2019-04-02T06:06:10.177Z,10.42
2019-04-02T06:07:10.203Z,10.44
2019-04-02T06:08:10.160Z,10.41
2019-04-02T06:09:10.152Z,10.42
2019-04-02T06:10:10.167Z,10.46
2019-04-02T06:11:10.252Z,10.43
2019-04-02T06:12:10.158Z,10.43
2019-04-02T06:13:10.126Z,10.46
2019-04-02T06:14:10.203Z,10.46
2019-04-02T06:15:10.156Z,10.44
2019-04-02T06:16:10.175Z,10.47
2019-04-02T06:17:10.222Z,10.48
2019-04-02T06:18:10.229Z,10.52
2019-04-02T06:19:10.127Z,10.54
2019-04-02T06:20:10.366Z,10.54
2019-04-02T06:21:11.961Z,10.57
2019-04-02T06:22:10.094Z,10.56
2019-04-02T06:23:15.823Z,10.56
2019-04-02T06:24:10.220Z,10.59
2019-04-02T06:25:13.394Z,10.51
2019-04-02T06:26:10.178Z,10.52
2019-04-02T06:27:10.206Z,10.53
2019-04-02T06:28:10.084Z,10.51
2019-04-02T06:29:10.121Z,10.53
2019-04-02T06:30:10.134Z,10.53
2019-04-02T06:31:10.142Z,10.54
2019-04-02T06:32:10.149Z,10.55
2019-04-02T06:33:10.223Z,10.57
2019-04-02T06:34:10.580Z,10.6
2019-04-02T06:35:10.138Z,10.61
2019-04-02T06:36:10.076Z,10.59
2019-04-02T06:37:10.134Z,10.62
2019-04-02T06:38:10.124Z,10.64
2019-04-02T06:39:10.095Z,10.62
2019-04-02T06:40:10.126Z,10.66
2019-04-02T06:41:10.143Z,10.68
2019-04-02T06:42:13.802Z,10.71
2019-04-02T06:43:10.220Z,10.72
2019-04-02T06:44:10.164Z,10.73
2019-04-02T06:45:10.108Z,10.78
2019-04-02T06:46:10.132Z,10.79
2019-04-02T06:47:10.180Z,10.84
2019-04-02T06:48:10.144Z,10.84
2019-04-02T06:49:10.130Z,10.85
2019-04-02T06:50:10.485Z,10.85
2019-04-02T06:51:11.173Z,10.88
2019-04-02T06:52:10.159Z,10.88
2019-04-02T06:53:10.122Z,10.9
2019-04-02T06:54:10.105Z,10.91
2019-04-02T06:55:10.241Z,10.94
2019-04-02T06:56:10.152Z,10.93
2019-04-02T06:57:10.081Z,10.96
2019-04-02T06:58:10.151Z,10.97
2019-04-02T06:59:10.104Z,10.98
2019-04-02T07:00:13.463Z,11.02
2019-04-02T07:02:10.109Z,11.08
2019-04-02T07:03:10.079Z,11.13
2019-04-02T07:04:10.132Z,11.12
2019-04-02T07:05:10.073Z,11.13
2019-04-02T07:06:10.059Z,11.15
2019-04-02T07:07:12.550Z,11.17
2019-04-02T07:08:15.864Z,11.21
2019-04-02T07:09:10.534Z,11.22
2019-04-02T07:10:10.177Z,11.22
2019-04-02T07:11:10.082Z,11.24
2019-04-02T07:12:10.153Z,11.27
2019-04-02T07:13:10.122Z,11.29
2019-04-02T07:14:10.051Z,11.33
2019-04-02T07:15:10.138Z,11.3
2019-04-02T07:16:10.117Z,11.34
2019-04-02T07:17:10.109Z,11.35
2019-04-02T07:18:10.055Z,11.39
2019-04-02T07:19:10.038Z,11.4
2019-04-02T07:20:10.092Z,11.41
2019-04-02T07:21:10.015Z,11.46
2019-04-02T07:22:10.051Z,11.47
2019-04-02T07:23:10.121Z,11.49
2019-04-02T07:24:10.028Z,11.53
2019-04-02T07:25:10.033Z,11.56
2019-04-02T07:26:10.244Z,11.59
2019-04-02T07:27:12.122Z,11.61
2019-04-02T07:28:13.131Z,11.61
2019-04-02T07:29:10.093Z,11.64
2019-04-02T07:30:10.029Z,11.62
2019-04-02T07:31:10.135Z,11.64
2019-04-02T07:32:10.067Z,11.66
2019-04-02T07:33:10.053Z,11.67
2019-04-02T07:34:10.121Z,11.66
2019-04-02T07:35:10.184Z,11.68
2019-04-02T07:36:10.191Z,11.69
2019-04-02T07:37:10.051Z,11.7
2019-04-02T07:38:10.222Z,11.72
2019-04-02T07:39:10.034Z,11.77
2019-04-02T07:40:10.086Z,11.8
2019-04-02T07:41:12.584Z,11.8
2019-04-02T07:42:10.026Z,11.86
2019-04-02T07:43:10.072Z,11.86
2019-04-02T07:44:10.142Z,11.88
2019-04-02T07:45:11.170Z,11.94
2019-04-02T07:46:10.093Z,11.99
2019-04-02T07:47:10.462Z,12.04
2019-04-02T07:48:10.665Z,12.06
2019-04-02T07:49:10.051Z,12.11
2019-04-02T07:50:10.049Z,12.13
2019-04-02T07:51:10.094Z,12.16
2019-04-02T07:52:10.016Z,12.19
2019-04-02T07:53:10.012Z,12.21
2019-04-02T07:54:11.086Z,12.22
2019-04-02T07:55:10.021Z,12.23
2019-04-02T07:56:10.036Z,12.26
2019-04-02T07:57:10.044Z,12.3
2019-04-02T07:58:10.033Z,12.3
2019-04-02T07:59:11.779Z,12.34
2019-04-02T08:00:11.081Z,12.34
2019-04-02T08:01:09.977Z,12.32
2019-04-02T08:02:10.043Z,12.34
2019-04-02T08:03:10.013Z,12.35
2019-04-02T08:04:10.083Z,12.35
2019-04-02T08:05:09.995Z,12.39
2019-04-02T08:06:10.023Z,12.42
2019-04-02T08:07:09.975Z,12.47
2019-04-02T08:08:10.011Z,12.46
2019-04-02T08:09:10.883Z,12.49
2019-04-02T08:10:10.651Z,12.54
2019-04-02T08:11:10.133Z,12.55
2019-04-02T08:12:09.990Z,12.61
2019-04-02T08:13:09.970Z,12.67
2019-04-02T08:14:10.120Z,12.69
2019-04-02T08:15:09.992Z,12.77
2019-04-02T08:16:10.069Z,12.83
2019-04-02T08:17:13.033Z,12.85
2019-04-02T08:18:10.054Z,12.86
2019-04-02T08:19:10.126Z,12.83
2019-04-02T08:20:10.958Z,12.89
2019-04-02T08:21:10.000Z,12.9
2019-04-02T08:22:10.025Z,12.93
2019-04-02T08:23:10.016Z,12.98
2019-04-02T08:24:10.054Z,13.01
2019-04-02T08:25:10.092Z,13.02
2019-04-02T08:26:09.960Z,13.08
2019-04-02T08:27:10.092Z,13.12
2019-04-02T08:28:13.433Z,13.17
2019-04-02T08:29:09.958Z,13.22
2019-04-02T08:30:09.976Z,13.24
2019-04-02T08:31:10.751Z,13.28
2019-04-02T08:32:09.952Z,13.31
2019-04-02T08:33:10.016Z,13.35
2019-04-02T08:34:12.454Z,13.4
2019-04-02T08:35:09.998Z,13.4
2019-04-02T08:36:10.034Z,13.42
2019-04-02T08:37:09.971Z,13.47
2019-04-02T08:38:10.064Z,13.48
2019-04-02T08:39:10.046Z,13.51
2019-04-02T08:40:10.009Z,13.53
2019-04-02T08:41:09.993Z,13.57
2019-04-02T08:42:09.986Z,13.6
2019-04-02T08:43:09.951Z,13.66
2019-04-02T08:44:10.003Z,13.69
2019-04-02T08:45:09.971Z,13.73
2019-04-02T08:46:10.003Z,13.75
2019-04-02T08:47:09.888Z,13.75
2019-04-02T08:48:09.993Z,13.8
2019-04-02T08:49:10.002Z,13.86
2019-04-02T08:50:09.925Z,13.86
2019-04-02T08:51:10.022Z,13.87
2019-04-02T08:52:10.270Z,13.91
2019-04-02T08:53:10.913Z,13.94
2019-04-02T08:54:09.952Z,13.98
2019-04-02T08:55:09.951Z,14
2019-04-02T08:56:09.954Z,14.05
2019-04-02T08:57:09.896Z,14.07
2019-04-02T08:58:09.966Z,14.1
2019-04-02T08:59:09.915Z,14.17
2019-04-02T09:00:09.920Z,14.22
2019-04-02T09:01:09.924Z,14.24
2019-04-02T09:02:12.309Z,14.28
2019-04-02T09:03:09.983Z,14.29
2019-04-02T09:04:10.036Z,14.29
2019-04-02T09:05:09.920Z,14.29
2019-04-02T09:06:12.470Z,14.3
2019-04-02T09:07:09.944Z,14.35
2019-04-02T09:08:09.925Z,14.33
2019-04-02T09:09:09.987Z,14.35
2019-04-02T09:10:09.910Z,14.38
2019-04-02T09:11:09.914Z,14.39
2019-04-02T09:12:09.937Z,14.42
2019-04-02T09:13:12.408Z,14.46
2019-04-02T09:14:10.347Z,14.47
2019-04-02T09:15:09.913Z,14.49
2019-04-02T09:16:09.884Z,14.52
2019-04-02T09:17:09.894Z,14.56
2019-04-02T09:18:09.967Z,14.62
2019-04-02T09:19:09.954Z,14.68
2019-04-02T09:20:09.905Z,14.71
2019-04-02T09:21:09.882Z,14.75
2019-04-02T09:22:09.908Z,14.74
2019-04-02T09:23:09.918Z,14.79
2019-04-02T09:24:09.908Z,14.86
2019-04-02T09:25:09.962Z,14.88
2019-04-02T09:26:19.109Z,14.91
2019-04-02T09:27:09.876Z,14.99
2019-04-02T09:28:11.159Z,15.05
2019-04-02T09:29:12.917Z,15.12
2019-04-02T09:30:09.934Z,15.11
2019-04-02T09:31:12.198Z,15.17
2019-04-02T09:32:09.856Z,15.15
2019-04-02T09:33:09.935Z,15.17
2019-04-02T09:34:12.600Z,15.15
2019-04-02T09:35:10.285Z,15.17
2019-04-02T09:36:10.015Z,15.22
2019-04-02T09:37:09.876Z,15.28
2019-04-02T09:38:09.943Z,15.31
2019-04-02T09:39:09.897Z,15.34
2019-04-02T09:40:10.118Z,15.36
2019-04-02T09:41:09.910Z,15.38
2019-04-02T09:42:09.871Z,15.41
2019-04-02T09:43:09.907Z,15.43
2019-04-02T09:44:12.135Z,15.5
2019-04-02T09:45:10.478Z,15.51
2019-04-02T09:46:09.886Z,15.57
2019-04-02T09:47:09.848Z,15.67
2019-04-02T09:48:09.865Z,15.77
2019-04-02T09:49:12.804Z,15.88
2019-04-02T09:50:09.829Z,15.96
2019-04-02T09:51:09.885Z,16
2019-04-02T09:52:09.829Z,15.98
2019-04-02T09:53:09.837Z,15.98
2019-04-02T09:54:09.870Z,16.01
2019-04-02T09:55:11.166Z,16.07
2019-04-02T09:56:09.892Z,16.13
2019-04-02T09:57:09.856Z,16.22
2019-04-02T09:58:09.882Z,16.24
2019-04-02T09:59:11.206Z,16.25
2019-04-02T10:00:09.990Z,16.28
2019-04-02T10:01:09.831Z,16.34
2019-04-02T10:02:09.831Z,16.39
2019-04-02T10:03:09.928Z,16.44
2019-04-02T10:04:09.836Z,16.49
2019-04-02T10:05:09.855Z,16.54
2019-04-02T10:06:09.881Z,16.57
2019-04-02T10:07:09.829Z,16.62
2019-04-02T10:08:09.824Z,16.68
2019-04-02T10:09:09.899Z,16.73
2019-04-02T10:10:09.924Z,16.86
2019-04-02T10:11:09.821Z,16.9
2019-04-02T10:12:09.810Z,16.94
2019-04-02T10:13:09.878Z,17.03
2019-04-02T10:14:09.791Z,17.06
2019-04-02T10:15:09.806Z,17.08
2019-04-02T10:16:11.978Z,17.12
2019-04-02T10:17:09.827Z,17.15
2019-04-02T10:18:10.440Z,17.18
2019-04-02T10:19:09.845Z,17.24
2019-04-02T10:20:09.844Z,17.28
2019-04-02T10:21:09.906Z,17.3
2019-04-02T10:22:09.858Z,17.31
2019-04-02T10:23:09.822Z,17.32
2019-04-02T10:24:09.892Z,17.31
2019-04-02T10:25:09.864Z,17.36
2019-04-02T10:26:09.815Z,17.4
2019-04-02T10:27:09.805Z,17.44
2019-04-02T10:28:09.795Z,17.42
2019-04-02T10:29:09.798Z,17.44
2019-04-02T10:30:09.769Z,17.5
2019-04-02T10:31:09.812Z,17.56
2019-04-02T10:32:09.942Z,17.62
2019-04-02T10:33:09.862Z,17.65
2019-04-02T10:34:09.873Z,17.71
2019-04-02T10:35:09.862Z,17.71
2019-04-02T10:36:09.763Z,17.76
2019-04-02T10:37:09.814Z,17.82
2019-04-02T10:38:09.777Z,17.84
2019-04-02T10:39:09.772Z,17.76
2019-04-02T10:40:10.062Z,17.86
2019-04-02T10:41:09.838Z,17.86
2019-04-02T10:42:09.862Z,17.89
2019-04-02T10:43:09.881Z,17.89
2019-04-02T10:44:09.774Z,17.91
2019-04-02T10:45:09.785Z,17.97
2019-04-02T10:46:09.763Z,17.99
2019-04-02T10:47:09.742Z,18.01
2019-04-02T10:48:10.012Z,18.01
2019-04-02T10:49:12.314Z,18.02
2019-04-02T10:50:09.817Z,18.01
2019-04-02T10:51:09.795Z,18
2019-04-02T10:52:09.802Z,18
2019-04-02T10:53:09.756Z,18.04
2019-04-02T10:54:09.873Z,18.09
2019-04-02T10:55:09.814Z,18.15
2019-04-02T10:56:09.789Z,18.18
2019-04-02T10:57:09.800Z,18.21
2019-04-02T10:58:12.471Z,18.19
2019-04-02T10:59:13.279Z,18.24
2019-04-02T11:00:09.828Z,18.24
2019-04-02T11:01:11.842Z,18.25
2019-04-02T11:02:09.763Z,18.26
2019-04-02T11:03:09.857Z,18.24
2019-04-02T11:04:09.755Z,18.24
2019-04-02T11:05:09.800Z,18.19
2019-04-02T11:06:09.767Z,18.1
2019-04-02T11:07:14.535Z,18.06
2019-04-02T11:08:09.843Z,18.08
2019-04-02T11:09:09.882Z,18.08
2019-04-02T11:10:09.947Z,18.14
2019-04-02T11:11:09.807Z,18.14
2019-04-02T11:12:09.854Z,18.2
2019-04-02T11:13:12.532Z,18.25
2019-04-02T11:14:13.525Z,18.32
2019-04-02T11:15:09.752Z,18.39
2019-04-02T11:16:10.011Z,18.44
2019-04-02T11:17:09.766Z,18.49
2019-04-02T11:18:09.742Z,18.55
2019-04-02T11:19:09.847Z,18.54
2019-04-02T11:20:09.753Z,18.59
2019-04-02T11:21:09.865Z,18.59
2019-04-02T11:22:09.987Z,18.54
2019-04-02T11:23:10.061Z,18.58
2019-04-02T11:24:09.809Z,18.63
2019-04-02T11:25:09.812Z,18.67
2019-04-02T11:26:09.810Z,18.72
2019-04-02T11:27:09.737Z,18.82
2019-04-02T11:28:09.743Z,18.83
2019-04-02T11:29:09.713Z,18.9
2019-04-02T11:30:09.751Z,18.9
2019-04-02T11:31:09.729Z,18.95
2019-04-02T11:32:09.817Z,19.01
2019-04-02T11:33:11.217Z,19.05
2019-04-02T11:34:09.965Z,19.14
2019-04-02T11:35:09.735Z,19.25
2019-04-02T11:36:09.953Z,19.31
2019-04-02T11:37:15.558Z,19.34
2019-04-02T11:38:09.788Z,19.39
2019-04-02T11:39:09.793Z,19.49
2019-04-02T11:40:09.789Z,19.59
2019-04-02T11:41:09.729Z,19.65
2019-04-02T11:42:09.887Z,19.65
2019-04-02T11:43:09.818Z,19.64
2019-04-02T11:44:10.339Z,19.66
2019-04-02T11:45:09.940Z,19.7
2019-04-02T11:46:09.727Z,19.69
2019-04-02T11:47:09.736Z,19.7
2019-04-02T11:48:09.721Z,19.75
2019-04-02T11:49:09.693Z,19.79
2019-04-02T11:50:09.730Z,19.87
2019-04-02T11:51:10.402Z,19.94
2019-04-02T11:52:10.130Z,20
2019-04-02T11:53:10.059Z,20.03
2019-04-02T11:54:24.217Z,20.1
2019-04-02T11:55:09.700Z,20.02
2019-04-02T11:56:09.713Z,20.04
2019-04-02T11:57:10.260Z,20.08
2019-04-02T11:58:17.695Z,20.08
2019-04-02T11:59:09.779Z,20.15
2019-04-02T12:00:09.709Z,20.19
2019-04-02T12:01:09.701Z,20.22
2019-04-02T12:02:09.815Z,20.28
2019-04-02T12:03:09.679Z,20.34
2019-04-02T12:04:11.832Z,20.41
2019-04-02T12:05:21.746Z,20.41
2019-04-02T12:06:10.086Z,20.41
2019-04-02T12:07:11.382Z,20.43
2019-04-02T12:08:19.451Z,20.47
2019-04-02T12:10:09.666Z,20.51
2019-04-02T12:11:09.671Z,20.47
2019-04-02T12:12:09.711Z,20.49
2019-04-02T12:13:09.753Z,20.49
2019-04-02T12:14:09.684Z,20.48
2019-04-02T12:15:09.705Z,20.53
2019-04-02T12:16:09.693Z,20.61
2019-04-02T12:17:09.736Z,20.58
2019-04-02T12:18:09.797Z,20.6
2019-04-02T12:19:14.393Z,20.68
2019-04-02T12:20:09.702Z,20.63
2019-04-02T12:21:12.474Z,20.58
2019-04-02T12:22:12.435Z,20.61
2019-04-02T12:23:09.653Z,20.64
2019-04-02T12:24:12.655Z,20.7
2019-04-02T12:25:11.649Z,20.72
2019-04-02T12:26:09.822Z,20.75
2019-04-02T12:27:09.665Z,20.81
2019-04-02T12:28:10.836Z,20.85
2019-04-02T12:29:09.669Z,20.8
2019-04-02T12:30:09.671Z,20.83
2019-04-02T12:31:09.656Z,20.86
2019-04-02T12:32:09.644Z,20.87
2019-04-02T12:33:09.687Z,20.88
2019-04-02T12:34:11.463Z,20.92
2019-04-02T12:35:09.688Z,20.88
2019-04-02T12:36:12.479Z,20.86
2019-04-02T12:37:12.413Z,20.83
2019-04-02T12:38:12.629Z,20.74
2019-04-02T12:39:12.873Z,20.71
2019-04-02T12:40:12.094Z,20.71
2019-04-02T12:41:10.404Z,20.68
2019-04-02T12:42:11.383Z,20.7
2019-04-02T12:43:09.687Z,20.68
2019-04-02T12:44:09.632Z,20.68
2019-04-02T12:45:09.651Z,20.7
2019-04-02T12:46:09.690Z,20.77
2019-04-02T12:47:09.619Z,20.78
2019-04-02T12:48:09.622Z,20.8
2019-04-02T12:49:09.755Z,20.78
2019-04-02T12:50:09.761Z,20.75
2019-04-02T12:51:10.853Z,20.8
2019-04-02T12:52:11.639Z,20.83
2019-04-02T12:53:09.652Z,20.84
2019-04-02T12:54:09.667Z,20.83
2019-04-02T12:55:09.659Z,20.84
2019-04-02T12:56:09.620Z,20.83
2019-04-02T12:57:09.650Z,20.83